sensor_id;sensor_type;location;lat;lon;timestamp;pressure;altitude;pressure_sealevel;temperature;humidity
62632;BME280;48703;51.248;-0.546;2023-05-02T00:01:32;101618;;;10.25;84.98
62632;BME280;48703;51.248;-0.546;2023-05-02T00:04:34;101619;;;10.24;85.29
62632;BME280;48703;51.248;-0.546;2023-05-02T00:07:36;101624;;;10.17;84.53
62632;BME280;48703;51.248;-0.546;2023-05-02T00:10:38;101626;;;10.09;84.62
62632;BME280;48703;51.248;-0.546;2023-05-02T00:13:40;101626;;;10.09;85.11
62632;BME280;48703;51.248;-0.546;2023-05-02T00:16:42;101629;;;10.08;84.75
62632;BME280;48703;51.248;-0.546;2023-05-02T00:19:44;101632;;;10.06;84.77
62632;BME280;48703;51.248;-0.546;2023-05-02T00:22:46;101631;;;10.02;85.00
62632;BME280;48703;51.248;-0.546;2023-05-02T00:25:48;101626;;;9.99;84.69
62632;BME280;48703;51.248;-0.546;2023-05-02T00:28:50;101625;;;9.97;84.96
62632;BME280;48703;51.248;-0.546;2023-05-02T00:31:52;101626;;;9.95;85.27
62632;BME280;48703;51.248;-0.546;2023-05-02T00:34:54;101623;;;9.89;84.92
62632;BME280;48703;51.248;-0.546;2023-05-02T00:37:58;101622;;;9.85;85.34
62632;BME280;48703;51.248;-0.546;2023-05-02T00:40:58;101626;;;9.80;85.27
62632;BME280;48703;51.248;-0.546;2023-05-02T00:44:00;101626;;;9.76;84.93
62632;BME280;48703;51.248;-0.546;2023-05-02T00:47:02;101625;;;9.76;85.10
62632;BME280;48703;51.248;-0.546;2023-05-02T00:50:05;101630;;;9.71;85.31
62632;BME280;48703;51.248;-0.546;2023-05-02T00:53:06;101629;;;9.68;85.81
62632;BME280;48703;51.248;-0.546;2023-05-02T00:56:08;101629;;;9.59;85.58
62632;BME280;48703;51.248;-0.546;2023-05-02T00:59:10;101630;;;9.54;85.76
62632;BME280;48703;51.248;-0.546;2023-05-02T01:02:18;101627;;;9.48;85.56
62632;BME280;48703;51.248;-0.546;2023-05-02T01:05:16;101626;;;9.47;86.03
62632;BME280;48703;51.248;-0.546;2023-05-02T01:08:18;101629;;;9.42;85.39
62632;BME280;48703;51.248;-0.546;2023-05-02T01:11:21;101634;;;9.38;86.09
62632;BME280;48703;51.248;-0.546;2023-05-02T01:14:20;101633;;;9.38;86.51
62632;BME280;48703;51.248;-0.546;2023-05-02T01:17:23;101633;;;9.35;86.84
62632;BME280;48703;51.248;-0.546;2023-05-02T01:20:25;101633;;;9.30;86.46
62632;BME280;48703;51.248;-0.546;2023-05-02T01:23:27;101630;;;9.26;86.89
62632;BME280;48703;51.248;-0.546;2023-05-02T01:26:31;101627;;;9.20;86.69
62632;BME280;48703;51.248;-0.546;2023-05-02T01:29:30;101630;;;9.18;86.44
62632;BME280;48703;51.248;-0.546;2023-05-02T01:32:32;101631;;;9.17;86.58
62632;BME280;48703;51.248;-0.546;2023-05-02T01:35:34;101629;;;9.15;86.12
62632;BME280;48703;51.248;-0.546;2023-05-02T01:38:36;101631;;;9.11;86.86
62632;BME280;48703;51.248;-0.546;2023-05-02T01:41:39;101633;;;9.07;86.84
62632;BME280;48703;51.248;-0.546;2023-05-02T01:44:40;101638;;;8.98;86.77
62632;BME280;48703;51.248;-0.546;2023-05-02T01:47:43;101638;;;8.97;86.53
62632;BME280;48703;51.248;-0.546;2023-05-02T01:50:44;101640;;;8.91;86.53
62632;BME280;48703;51.248;-0.546;2023-05-02T01:53:47;101641;;;8.79;86.82
62632;BME280;48703;51.248;-0.546;2023-05-02T01:56:48;101644;;;8.74;86.93
62632;BME280;48703;51.248;-0.546;2023-05-02T01:59:51;101644;;;8.68;87.02
62632;BME280;48703;51.248;-0.546;2023-05-02T02:02:53;101647;;;8.68;86.99
62632;BME280;48703;51.248;-0.546;2023-05-02T02:05:55;101650;;;8.69;86.44
62632;BME280;48703;51.248;-0.546;2023-05-02T02:08:57;101657;;;8.65;86.86
62632;BME280;48703;51.248;-0.546;2023-05-02T02:12:01;101662;;;8.62;87.03
62632;BME280;48703;51.248;-0.546;2023-05-02T02:15:02;101663;;;8.59;87.44
62632;BME280;48703;51.248;-0.546;2023-05-02T02:18:04;101669;;;8.59;87.64
62632;BME280;48703;51.248;-0.546;2023-05-02T02:21:05;101673;;;8.57;87.53
62632;BME280;48703;51.248;-0.546;2023-05-02T02:24:07;101673;;;8.57;87.84
62632;BME280;48703;51.248;-0.546;2023-05-02T02:27:09;101676;;;8.58;88.26
62632;BME280;48703;51.248;-0.546;2023-05-02T02:30:11;101683;;;8.58;88.27
62632;BME280;48703;51.248;-0.546;2023-05-02T02:33:13;101687;;;8.59;88.42
62632;BME280;48703;51.248;-0.546;2023-05-02T02:36:17;101690;;;8.64;89.06
62632;BME280;48703;51.248;-0.546;2023-05-02T02:39:19;101698;;;8.69;88.34
62632;BME280;48703;51.248;-0.546;2023-05-02T02:42:21;101703;;;8.76;89.34
62632;BME280;48703;51.248;-0.546;2023-05-02T02:45:24;101705;;;8.82;88.98
62632;BME280;48703;51.248;-0.546;2023-05-02T02:48:24;101704;;;8.88;88.53
62632;BME280;48703;51.248;-0.546;2023-05-02T02:51:27;101710;;;8.96;88.50
62632;BME280;48703;51.248;-0.546;2023-05-02T02:54:28;101710;;;8.99;88.95
62632;BME280;48703;51.248;-0.546;2023-05-02T02:57:32;101706;;;9.00;88.96
62632;BME280;48703;51.248;-0.546;2023-05-02T03:00:31;101702;;;9.01;88.59
62632;BME280;48703;51.248;-0.546;2023-05-02T03:03:33;101707;;;9.02;88.76
62632;BME280;48703;51.248;-0.546;2023-05-02T03:06:35;101709;;;9.02;88.38
62632;BME280;48703;51.248;-0.546;2023-05-02T03:09:40;101716;;;9.02;89.34
62632;BME280;48703;51.248;-0.546;2023-05-02T03:12:39;101720;;;9.03;89.22
62632;BME280;48703;51.248;-0.546;2023-05-02T03:16:04;101724;;;9.06;89.22
62632;BME280;48703;51.248;-0.546;2023-05-02T03:18:43;101726;;;9.06;89.45
62632;BME280;48703;51.248;-0.546;2023-05-02T03:21:45;101726;;;9.08;88.83
62632;BME280;48703;51.248;-0.546;2023-05-02T03:24:47;101723;;;9.10;88.72
62632;BME280;48703;51.248;-0.546;2023-05-02T03:27:49;101719;;;9.11;88.90
62632;BME280;48703;51.248;-0.546;2023-05-02T03:30:51;101716;;;9.14;89.01
62632;BME280;48703;51.248;-0.546;2023-05-02T03:33:53;101721;;;9.15;88.77
62632;BME280;48703;51.248;-0.546;2023-05-02T03:36:55;101723;;;9.15;89.15
62632;BME280;48703;51.248;-0.546;2023-05-02T03:39:57;101723;;;9.16;89.18
62632;BME280;48703;51.248;-0.546;2023-05-02T03:42:59;101725;;;9.17;88.93
62632;BME280;48703;51.248;-0.546;2023-05-02T03:46:03;101734;;;9.19;89.23
62632;BME280;48703;51.248;-0.546;2023-05-02T03:49:03;101736;;;9.18;90.00
62632;BME280;48703;51.248;-0.546;2023-05-02T03:52:05;101740;;;9.19;89.38
62632;BME280;48703;51.248;-0.546;2023-05-02T03:55:07;101743;;;9.21;89.57
62632;BME280;48703;51.248;-0.546;2023-05-02T03:58:09;101743;;;9.22;89.80
62632;BME280;48703;51.248;-0.546;2023-05-02T04:01:12;101744;;;9.25;89.51
62632;BME280;48703;51.248;-0.546;2023-05-02T04:04:13;101744;;;9.29;89.70
62632;BME280;48703;51.248;-0.546;2023-05-02T04:07:15;101744;;;9.29;89.75
62632;BME280;48703;51.248;-0.546;2023-05-02T04:10:17;101741;;;9.32;90.15
62632;BME280;48703;51.248;-0.546;2023-05-02T04:13:19;101741;;;9.33;89.97
62632;BME280;48703;51.248;-0.546;2023-05-02T04:16:21;101743;;;9.35;90.03
62632;BME280;48703;51.248;-0.546;2023-05-02T04:19:23;101745;;;9.38;89.70
62632;BME280;48703;51.248;-0.546;2023-05-02T04:22:25;101747;;;9.39;89.78
62632;BME280;48703;51.248;-0.546;2023-05-02T04:25:28;101752;;;9.40;90.00
62632;BME280;48703;51.248;-0.546;2023-05-02T04:28:29;101762;;;9.41;90.80
62632;BME280;48703;51.248;-0.546;2023-05-02T04:31:32;101772;;;9.40;90.95
62632;BME280;48703;51.248;-0.546;2023-05-02T04:34:34;101782;;;9.40;91.20
62632;BME280;48703;51.248;-0.546;2023-05-02T04:37:36;101787;;;9.43;90.73
62632;BME280;48703;51.248;-0.546;2023-05-02T04:40:38;101792;;;9.44;90.76
62632;BME280;48703;51.248;-0.546;2023-05-02T04:43:40;101796;;;9.46;90.73
62632;BME280;48703;51.248;-0.546;2023-05-02T04:46:42;101800;;;9.48;90.67
62632;BME280;48703;51.248;-0.546;2023-05-02T04:49:44;101803;;;9.49;91.08
62632;BME280;48703;51.248;-0.546;2023-05-02T04:52:46;101810;;;9.50;90.90
62632;BME280;48703;51.248;-0.546;2023-05-02T04:55:48;101810;;;9.51;90.63
62632;BME280;48703;51.248;-0.546;2023-05-02T04:58:50;101810;;;9.54;91.00
62632;BME280;48703;51.248;-0.546;2023-05-02T05:01:52;101809;;;9.55;90.68
62632;BME280;48703;51.248;-0.546;2023-05-02T05:04:54;101812;;;9.57;90.63
62632;BME280;48703;51.248;-0.546;2023-05-02T05:07:56;101812;;;9.58;90.89
62632;BME280;48703;51.248;-0.546;2023-05-02T05:10:58;101809;;;9.58;90.77
62632;BME280;48703;51.248;-0.546;2023-05-02T05:14:00;101812;;;9.60;90.51
62632;BME280;48703;51.248;-0.546;2023-05-02T05:17:02;101818;;;9.62;90.62
62632;BME280;48703;51.248;-0.546;2023-05-02T05:20:04;101822;;;9.62;90.64
62632;BME280;48703;51.248;-0.546;2023-05-02T05:23:06;101824;;;9.64;91.04
62632;BME280;48703;51.248;-0.546;2023-05-02T05:26:08;101830;;;9.66;90.91
62632;BME280;48703;51.248;-0.546;2023-05-02T05:29:10;101835;;;9.67;90.90
62632;BME280;48703;51.248;-0.546;2023-05-02T05:32:12;101835;;;9.69;90.32
62632;BME280;48703;51.248;-0.546;2023-05-02T05:35:14;101838;;;9.71;90.49
62632;BME280;48703;51.248;-0.546;2023-05-02T05:38:16;101845;;;9.72;90.32
62632;BME280;48703;51.248;-0.546;2023-05-02T05:41:18;101847;;;9.74;90.83
62632;BME280;48703;51.248;-0.546;2023-05-02T05:44:20;101848;;;9.76;90.85
62632;BME280;48703;51.248;-0.546;2023-05-02T05:47:22;101852;;;9.78;90.65
62632;BME280;48703;51.248;-0.546;2023-05-02T05:50:24;101855;;;9.80;90.17
62632;BME280;48703;51.248;-0.546;2023-05-02T05:53:26;101861;;;9.83;90.89
62632;BME280;48703;51.248;-0.546;2023-05-02T05:56:28;101861;;;9.86;90.30
62632;BME280;48703;51.248;-0.546;2023-05-02T05:59:30;101867;;;9.89;90.38
62632;BME280;48703;51.248;-0.546;2023-05-02T06:02:32;101874;;;9.93;90.12
62632;BME280;48703;51.248;-0.546;2023-05-02T06:05:34;101880;;;9.95;90.57
62632;BME280;48703;51.248;-0.546;2023-05-02T06:08:36;101881;;;9.97;90.44
62632;BME280;48703;51.248;-0.546;2023-05-02T06:11:38;101880;;;10.00;90.89
62632;BME280;48703;51.248;-0.546;2023-05-02T06:14:40;101878;;;10.03;90.43
62632;BME280;48703;51.248;-0.546;2023-05-02T06:17:42;101877;;;10.05;89.90
62632;BME280;48703;51.248;-0.546;2023-05-02T06:20:44;101877;;;10.09;90.73
62632;BME280;48703;51.248;-0.546;2023-05-02T06:23:46;101877;;;10.11;90.78
62632;BME280;48703;51.248;-0.546;2023-05-02T06:26:48;101879;;;10.14;89.93
62632;BME280;48703;51.248;-0.546;2023-05-02T06:29:50;101881;;;10.18;90.10
62632;BME280;48703;51.248;-0.546;2023-05-02T06:32:52;101881;;;10.20;90.08
62632;BME280;48703;51.248;-0.546;2023-05-02T06:35:54;101883;;;10.23;89.88
62632;BME280;48703;51.248;-0.546;2023-05-02T06:38:56;101889;;;10.27;89.69
62632;BME280;48703;51.248;-0.546;2023-05-02T06:41:58;101891;;;10.30;89.57
62632;BME280;48703;51.248;-0.546;2023-05-02T06:45:00;101890;;;10.32;89.49
62632;BME280;48703;51.248;-0.546;2023-05-02T06:48:03;101891;;;10.35;89.76
62632;BME280;48703;51.248;-0.546;2023-05-02T06:51:04;101896;;;10.37;89.90
62632;BME280;48703;51.248;-0.546;2023-05-02T06:54:06;101894;;;10.39;90.16
62632;BME280;48703;51.248;-0.546;2023-05-02T06:57:08;101896;;;10.41;89.53
62632;BME280;48703;51.248;-0.546;2023-05-02T07:00:11;101902;;;10.45;89.35
62632;BME280;48703;51.248;-0.546;2023-05-02T07:03:12;101906;;;10.48;89.37
62632;BME280;48703;51.248;-0.546;2023-05-02T07:06:15;101909;;;10.52;89.82
62632;BME280;48703;51.248;-0.546;2023-05-02T07:09:17;101914;;;10.55;89.36
62632;BME280;48703;51.248;-0.546;2023-05-02T07:12:19;101920;;;10.61;89.59
62632;BME280;48703;51.248;-0.546;2023-05-02T07:15:21;101924;;;10.64;89.78
62632;BME280;48703;51.248;-0.546;2023-05-02T07:18:23;101924;;;10.67;89.10
62632;BME280;48703;51.248;-0.546;2023-05-02T07:21:25;101921;;;10.70;89.33
62632;BME280;48703;51.248;-0.546;2023-05-02T07:24:27;101914;;;10.74;89.60
62632;BME280;48703;51.248;-0.546;2023-05-02T07:27:29;101911;;;10.79;89.84
62632;BME280;48703;51.248;-0.546;2023-05-02T07:30:31;101913;;;10.82;89.63
62632;BME280;48703;51.248;-0.546;2023-05-02T07:33:33;101915;;;10.87;89.30
62632;BME280;48703;51.248;-0.546;2023-05-02T07:36:35;101914;;;10.93;88.73
62632;BME280;48703;51.248;-0.546;2023-05-02T07:39:37;101919;;;10.97;88.56
62632;BME280;48703;51.248;-0.546;2023-05-02T07:42:39;101921;;;11.02;88.44
62632;BME280;48703;51.248;-0.546;2023-05-02T07:45:41;101918;;;11.05;88.83
62632;BME280;48703;51.248;-0.546;2023-05-02T07:48:43;101917;;;11.08;88.93
62632;BME280;48703;51.248;-0.546;2023-05-02T07:51:45;101916;;;11.11;88.57
62632;BME280;48703;51.248;-0.546;2023-05-02T07:54:47;101918;;;11.14;88.44
62632;BME280;48703;51.248;-0.546;2023-05-02T07:57:49;101920;;;11.16;88.42
62632;BME280;48703;51.248;-0.546;2023-05-02T08:00:51;101920;;;11.17;88.61
62632;BME280;48703;51.248;-0.546;2023-05-02T08:03:53;101921;;;11.21;88.56
62632;BME280;48703;51.248;-0.546;2023-05-02T08:06:55;101923;;;11.24;88.56
62632;BME280;48703;51.248;-0.546;2023-05-02T08:09:57;101925;;;11.28;88.65
62632;BME280;48703;51.248;-0.546;2023-05-02T08:12:59;101922;;;11.33;88.29
62632;BME280;48703;51.248;-0.546;2023-05-02T08:16:01;101921;;;11.37;88.20
62632;BME280;48703;51.248;-0.546;2023-05-02T08:19:03;101925;;;11.41;88.01
62632;BME280;48703;51.248;-0.546;2023-05-02T08:22:05;101930;;;11.45;87.67
62632;BME280;48703;51.248;-0.546;2023-05-02T08:25:07;101932;;;11.48;87.52
62632;BME280;48703;51.248;-0.546;2023-05-02T08:28:09;101936;;;11.50;87.27
62632;BME280;48703;51.248;-0.546;2023-05-02T08:31:11;101941;;;11.52;86.94
62632;BME280;48703;51.248;-0.546;2023-05-02T08:34:13;101947;;;11.52;86.90
62632;BME280;48703;51.248;-0.546;2023-05-02T08:37:15;101949;;;11.54;86.74
62632;BME280;48703;51.248;-0.546;2023-05-02T08:40:17;101951;;;11.58;86.76
62632;BME280;48703;51.248;-0.546;2023-05-02T08:43:19;101955;;;11.59;86.40
62632;BME280;48703;51.248;-0.546;2023-05-02T08:46:22;101961;;;11.62;86.37
62632;BME280;48703;51.248;-0.546;2023-05-02T08:49:23;101968;;;11.64;85.97
62632;BME280;48703;51.248;-0.546;2023-05-02T08:52:25;101975;;;11.67;85.90
62632;BME280;48703;51.248;-0.546;2023-05-02T08:55:27;101981;;;11.69;85.55
62632;BME280;48703;51.248;-0.546;2023-05-02T08:58:29;101982;;;11.69;85.14
62632;BME280;48703;51.248;-0.546;2023-05-02T09:01:31;101979;;;11.68;85.39
62632;BME280;48703;51.248;-0.546;2023-05-02T09:04:33;101987;;;11.67;85.47
62632;BME280;48703;51.248;-0.546;2023-05-02T09:07:43;101993;;;11.66;85.20
62632;BME280;48703;51.248;-0.546;2023-05-02T09:10:37;101997;;;11.66;85.08
62632;BME280;48703;51.248;-0.546;2023-05-02T09:13:40;102001;;;11.66;85.05
62632;BME280;48703;51.248;-0.546;2023-05-02T09:16:42;102007;;;11.70;85.35
62632;BME280;48703;51.248;-0.546;2023-05-02T09:19:43;102012;;;11.73;85.20
62632;BME280;48703;51.248;-0.546;2023-05-02T09:22:47;102014;;;11.79;85.18
62632;BME280;48703;51.248;-0.546;2023-05-02T09:25:47;102014;;;11.85;84.96
62632;BME280;48703;51.248;-0.546;2023-05-02T09:28:50;102014;;;11.92;84.47
62632;BME280;48703;51.248;-0.546;2023-05-02T09:31:52;102017;;;11.99;84.74
62632;BME280;48703;51.248;-0.546;2023-05-02T09:35:09;102020;;;12.04;83.91
62632;BME280;48703;51.248;-0.546;2023-05-02T09:37:56;102020;;;12.06;83.94
62632;BME280;48703;51.248;-0.546;2023-05-02T09:40:58;102019;;;12.10;83.85
62632;BME280;48703;51.248;-0.546;2023-05-02T09:44:00;102021;;;12.14;83.44
62632;BME280;48703;51.248;-0.546;2023-05-02T09:47:02;102029;;;12.20;83.50
62632;BME280;48703;51.248;-0.546;2023-05-02T09:50:04;102030;;;12.23;83.43
62632;BME280;48703;51.248;-0.546;2023-05-02T09:53:06;102027;;;12.27;82.90
62632;BME280;48703;51.248;-0.546;2023-05-02T09:56:08;102024;;;12.33;82.80
62632;BME280;48703;51.248;-0.546;2023-05-02T09:59:11;102023;;;12.39;82.06
62632;BME280;48703;51.248;-0.546;2023-05-02T10:02:12;102020;;;12.42;81.76
62632;BME280;48703;51.248;-0.546;2023-05-02T10:05:14;102020;;;12.48;81.63
62632;BME280;48703;51.248;-0.546;2023-05-02T10:08:17;102019;;;12.53;81.03
62632;BME280;48703;51.248;-0.546;2023-05-02T10:11:18;102013;;;12.57;80.97
62632;BME280;48703;51.248;-0.546;2023-05-02T10:14:21;102014;;;12.61;81.02
62632;BME280;48703;51.248;-0.546;2023-05-02T10:17:25;102021;;;12.67;81.31
62632;BME280;48703;51.248;-0.546;2023-05-02T10:20:24;102029;;;12.66;80.81
62632;BME280;48703;51.248;-0.546;2023-05-02T10:23:27;102034;;;12.67;80.56
62632;BME280;48703;51.248;-0.546;2023-05-02T10:26:28;102036;;;12.69;81.08
62632;BME280;48703;51.248;-0.546;2023-05-02T10:29:30;102040;;;12.71;80.55
62632;BME280;48703;51.248;-0.546;2023-05-02T10:32:32;102045;;;12.73;80.82
62632;BME280;48703;51.248;-0.546;2023-05-02T10:35:35;102053;;;12.73;80.19
62632;BME280;48703;51.248;-0.546;2023-05-02T10:38:36;102053;;;12.73;79.85
62632;BME280;48703;51.248;-0.546;2023-05-02T10:41:38;102055;;;12.74;79.95
62632;BME280;48703;51.248;-0.546;2023-05-02T10:44:40;102059;;;12.73;79.76
62632;BME280;48703;51.248;-0.546;2023-05-02T10:47:43;102065;;;12.74;80.17
62632;BME280;48703;51.248;-0.546;2023-05-02T10:50:45;102064;;;12.78;79.25
62632;BME280;48703;51.248;-0.546;2023-05-02T10:53:46;102070;;;12.85;79.34
62632;BME280;48703;51.248;-0.546;2023-05-02T10:57:04;102078;;;12.90;79.11
62632;BME280;48703;51.248;-0.546;2023-05-02T10:59:50;102081;;;12.96;79.19
62632;BME280;48703;51.248;-0.546;2023-05-02T11:02:52;102078;;;13.01;79.38
62632;BME280;48703;51.248;-0.546;2023-05-02T11:06:03;102069;;;13.11;79.07
62632;BME280;48703;51.248;-0.546;2023-05-02T11:09:29;102066;;;13.21;77.65
62632;BME280;48703;51.248;-0.546;2023-05-02T11:11:58;102065;;;13.29;77.69
62632;BME280;48703;51.248;-0.546;2023-05-02T11:15:01;102062;;;13.36;77.42
62632;BME280;48703;51.248;-0.546;2023-05-02T11:18:03;102061;;;13.41;76.84
62632;BME280;48703;51.248;-0.546;2023-05-02T11:20:18;102061;;;13.41;75.84
62632;BME280;48703;51.248;-0.546;2023-05-02T11:23:37;102062;;;13.42;76.05
62632;BME280;48703;51.248;-0.546;2023-05-02T11:26:21;102060;;;13.44;75.81
62632;BME280;48703;51.248;-0.546;2023-05-02T11:29:10;102059;;;13.44;75.43
62632;BME280;48703;51.248;-0.546;2023-05-02T11:32:12;102058;;;13.49;76.69
62632;BME280;48703;51.248;-0.546;2023-05-02T11:35:14;102055;;;13.55;75.95
62632;BME280;48703;51.248;-0.546;2023-05-02T11:38:17;102054;;;13.57;74.87
62632;BME280;48703;51.248;-0.546;2023-05-02T11:41:18;102058;;;13.60;75.73
62632;BME280;48703;51.248;-0.546;2023-05-02T11:44:20;102064;;;13.65;75.36
62632;BME280;48703;51.248;-0.546;2023-05-02T11:47:22;102076;;;13.61;74.58
62632;BME280;48703;51.248;-0.546;2023-05-02T11:50:24;102079;;;13.63;75.37
62632;BME280;48703;51.248;-0.546;2023-05-02T11:53:26;102081;;;13.64;74.32
62632;BME280;48703;51.248;-0.546;2023-05-02T11:56:28;102086;;;13.63;74.57
62632;BME280;48703;51.248;-0.546;2023-05-02T11:59:30;102095;;;13.62;74.00
62632;BME280;48703;51.248;-0.546;2023-05-02T12:02:35;102097;;;13.61;74.08
62632;BME280;48703;51.248;-0.546;2023-05-02T12:05:34;102097;;;13.59;73.87
62632;BME280;48703;51.248;-0.546;2023-05-02T12:08:36;102102;;;13.58;74.62
62632;BME280;48703;51.248;-0.546;2023-05-02T12:11:38;102102;;;13.61;74.83
62632;BME280;48703;51.248;-0.546;2023-05-02T12:14:40;102105;;;13.60;74.59
62632;BME280;48703;51.248;-0.546;2023-05-02T12:17:44;102104;;;13.57;74.58
62632;BME280;48703;51.248;-0.546;2023-05-02T12:20:44;102102;;;13.56;74.52
62632;BME280;48703;51.248;-0.546;2023-05-02T12:23:46;102103;;;13.54;74.74
62632;BME280;48703;51.248;-0.546;2023-05-02T12:26:48;102104;;;13.55;74.75
62632;BME280;48703;51.248;-0.546;2023-05-02T12:29:50;102101;;;13.56;74.68
62632;BME280;48703;51.248;-0.546;2023-05-02T12:32:55;102095;;;13.56;75.16
62632;BME280;48703;51.248;-0.546;2023-05-02T12:36:04;102087;;;13.56;75.06
62632;BME280;48703;51.248;-0.546;2023-05-02T12:38:57;102086;;;13.58;75.11
62632;BME280;48703;51.248;-0.546;2023-05-02T12:41:58;102090;;;13.56;74.67
62632;BME280;48703;51.248;-0.546;2023-05-02T12:45:00;102096;;;13.58;74.74
62632;BME280;48703;51.248;-0.546;2023-05-02T12:48:16;102100;;;13.59;74.92
62632;BME280;48703;51.248;-0.546;2023-05-02T12:51:04;102101;;;13.62;75.22
62632;BME280;48703;51.248;-0.546;2023-05-02T12:54:06;102100;;;13.68;75.18
62632;BME280;48703;51.248;-0.546;2023-05-02T12:57:08;102101;;;13.75;74.83
62632;BME280;48703;51.248;-0.546;2023-05-02T13:00:11;102107;;;13.82;74.52
62632;BME280;48703;51.248;-0.546;2023-05-02T13:03:12;102110;;;13.85;73.75
62632;BME280;48703;51.248;-0.546;2023-05-02T13:06:14;102106;;;13.93;74.19
62632;BME280;48703;51.248;-0.546;2023-05-02T13:09:16;102107;;;13.99;74.64
62632;BME280;48703;51.248;-0.546;2023-05-02T13:12:18;102101;;;14.03;73.88
62632;BME280;48703;51.248;-0.546;2023-05-02T13:15:20;102091;;;14.07;73.56
62632;BME280;48703;51.248;-0.546;2023-05-02T13:18:22;102098;;;14.10;73.27
62632;BME280;48703;51.248;-0.546;2023-05-02T13:21:24;102103;;;14.11;73.05
62632;BME280;48703;51.248;-0.546;2023-05-02T13:24:26;102102;;;14.17;73.43
62632;BME280;48703;51.248;-0.546;2023-05-02T13:27:29;102102;;;14.22;72.13
62632;BME280;48703;51.248;-0.546;2023-05-02T13:30:30;102105;;;14.27;72.58
62632;BME280;48703;51.248;-0.546;2023-05-02T13:33:32;102101;;;14.31;73.09
62632;BME280;48703;51.248;-0.546;2023-05-02T13:36:34;102096;;;14.30;72.36
62632;BME280;48703;51.248;-0.546;2023-05-02T13:39:36;102101;;;14.29;72.26
62632;BME280;48703;51.248;-0.546;2023-05-02T13:42:38;102105;;;14.28;72.45
62632;BME280;48703;51.248;-0.546;2023-05-02T13:45:40;102101;;;14.26;71.93
62632;BME280;48703;51.248;-0.546;2023-05-02T13:48:42;102098;;;14.26;72.98
62632;BME280;48703;51.248;-0.546;2023-05-02T13:51:45;102099;;;14.28;72.99
62632;BME280;48703;51.248;-0.546;2023-05-02T13:54:47;102101;;;14.28;72.10
62632;BME280;48703;51.248;-0.546;2023-05-02T13:57:49;102101;;;14.28;72.09
62632;BME280;48703;51.248;-0.546;2023-05-02T14:00:51;102106;;;14.27;71.69
62632;BME280;48703;51.248;-0.546;2023-05-02T14:03:53;102106;;;14.26;71.89
62632;BME280;48703;51.248;-0.546;2023-05-02T14:06:55;102106;;;14.28;71.82
62632;BME280;48703;51.248;-0.546;2023-05-02T14:09:57;102106;;;14.32;72.32
62632;BME280;48703;51.248;-0.546;2023-05-02T14:12:59;102105;;;14.36;71.82
62632;BME280;48703;51.248;-0.546;2023-05-02T14:16:01;102104;;;14.43;71.95
62632;BME280;48703;51.248;-0.546;2023-05-02T14:19:03;102106;;;14.54;71.62
62632;BME280;48703;51.248;-0.546;2023-05-02T14:22:05;102104;;;14.61;71.18
62632;BME280;48703;51.248;-0.546;2023-05-02T14:25:07;102099;;;14.70;71.67
62632;BME280;48703;51.248;-0.546;2023-05-02T14:28:09;102096;;;14.74;70.26
62632;BME280;48703;51.248;-0.546;2023-05-02T14:31:11;102092;;;14.83;70.86
62632;BME280;48703;51.248;-0.546;2023-05-02T14:34:13;102090;;;14.89;70.13
62632;BME280;48703;51.248;-0.546;2023-05-02T14:37:15;102091;;;14.95;70.40
62632;BME280;48703;51.248;-0.546;2023-05-02T14:40:17;102096;;;15.00;69.68
62632;BME280;48703;51.248;-0.546;2023-05-02T14:43:19;102094;;;15.02;69.45
62632;BME280;48703;51.248;-0.546;2023-05-02T14:46:21;102091;;;15.02;69.53
62632;BME280;48703;51.248;-0.546;2023-05-02T14:49:23;102092;;;15.07;68.75
62632;BME280;48703;51.248;-0.546;2023-05-02T14:52:25;102089;;;15.21;69.60
62632;BME280;48703;51.248;-0.546;2023-05-02T14:55:27;102086;;;15.35;67.80
62632;BME280;48703;51.248;-0.546;2023-05-02T14:58:29;102089;;;15.54;68.83
62632;BME280;48703;51.248;-0.546;2023-05-02T15:01:31;102081;;;15.69;67.95
62632;BME280;48703;51.248;-0.546;2023-05-02T15:04:33;102073;;;15.79;67.83
62632;BME280;48703;51.248;-0.546;2023-05-02T15:07:35;102068;;;15.95;66.55
62632;BME280;48703;51.248;-0.546;2023-05-02T15:10:37;102067;;;16.04;66.40
62632;BME280;48703;51.248;-0.546;2023-05-02T15:13:39;102066;;;16.12;66.21
62632;BME280;48703;51.248;-0.546;2023-05-02T15:16:41;102064;;;16.20;64.91
62632;BME280;48703;51.248;-0.546;2023-05-02T15:19:43;102062;;;16.28;65.12
62632;BME280;48703;51.248;-0.546;2023-05-02T15:22:45;102055;;;16.23;64.42
62632;BME280;48703;51.248;-0.546;2023-05-02T15:25:47;102050;;;16.28;63.85
62632;BME280;48703;51.248;-0.546;2023-05-02T15:28:49;102047;;;16.38;63.88
62632;BME280;48703;51.248;-0.546;2023-05-02T15:31:51;102046;;;16.59;64.17
62632;BME280;48703;51.248;-0.546;2023-05-02T15:34:53;102048;;;16.66;64.42
62632;BME280;48703;51.248;-0.546;2023-05-02T15:37:55;102050;;;16.65;62.44
62632;BME280;48703;51.248;-0.546;2023-05-02T15:40:58;102051;;;16.64;62.95
62632;BME280;48703;51.248;-0.546;2023-05-02T15:43:59;102049;;;16.71;62.90
62632;BME280;48703;51.248;-0.546;2023-05-02T15:47:01;102048;;;16.75;61.82
62632;BME280;48703;51.248;-0.546;2023-05-02T15:50:03;102048;;;16.85;61.93
62632;BME280;48703;51.248;-0.546;2023-05-02T15:53:05;102044;;;16.86;61.26
62632;BME280;48703;51.248;-0.546;2023-05-02T15:56:07;102043;;;16.94;61.74
62632;BME280;48703;51.248;-0.546;2023-05-02T15:59:09;102041;;;17.01;60.77
62632;BME280;48703;51.248;-0.546;2023-05-02T16:02:11;102039;;;16.97;60.11
62632;BME280;48703;51.248;-0.546;2023-05-02T16:05:13;102044;;;17.09;61.57
62632;BME280;48703;51.248;-0.546;2023-05-02T16:08:15;102043;;;17.22;60.93
62632;BME280;48703;51.248;-0.546;2023-05-02T16:11:17;102042;;;17.35;60.16
62632;BME280;48703;51.248;-0.546;2023-05-02T16:14:19;102045;;;17.33;61.52
62632;BME280;48703;51.248;-0.546;2023-05-02T16:17:21;102051;;;17.20;59.92
62632;BME280;48703;51.248;-0.546;2023-05-02T16:20:23;102046;;;17.00;60.03